Time;durP1;ratioP1;P1;durP2;ratioP2;P2;SDS_P1;SDS_P2;PMS_P1;PMS_P2;Temp;Humidity;BMP_temperature;BMP_pressure;BME280_temperature;BME280_humidity;BME280_pressure;Samples;Min_cycle;Max_cycle;Signal;HPM_P1;HPM_P2
2020/12/08 00:01:46;;;;;;;17.45;12.65;;;;;;;3.78;100.00;99584.41;5246008;28;20031;-82
2020/12/08 00:04:17;;;;;;;24.40;12.93;;;;;;;3.78;100.00;99581.81;5244214;28;20024;-79
2020/12/08 00:06:47;;;;;;;17.33;12.80;;;;;;;3.91;100.00;99578.06;5245098;28;20025;-79
2020/12/08 00:09:17;;;;;;;15.25;11.63;;;;;;;4.10;100.00;99579.28;5234605;28;20115;-81
2020/12/08 00:11:48;;;;;;;15.77;11.80;;;;;;;4.14;100.00;99577.47;5228630;28;20033;-81
2020/12/08 00:14:18;;;;;;;16.20;11.73;;;;;;;4.17;100.00;99578.25;5223922;28;20029;-82
2020/12/08 00:16:48;;;;;;;18.02;12.73;;;;;;;4.23;100.00;99580.69;5223677;28;20021;-82
2020/12/08 00:19:19;;;;;;;19.55;13.55;;;;;;;3.82;100.00;99580.03;5223571;28;20035;-80
2020/12/08 00:21:49;;;;;;;19.35;13.93;;;;;;;4.06;100.00;99582.84;5230706;28;20079;-80
2020/12/08 00:24:19;;;;;;;17.92;13.35;;;;;;;4.05;100.00;99580.28;5243276;28;20032;-80
2020/12/08 00:26:50;;;;;;;16.05;12.18;;;;;;;4.01;100.00;99576.97;5234920;28;20021;-81
2020/12/08 00:29:20;;;;;;;18.52;13.75;;;;;;;3.81;100.00;99575.75;5225435;28;20115;-83
2020/12/08 00:31:50;;;;;;;18.25;12.93;;;;;;;3.59;100.00;99575.41;5223861;28;20025;-83
2020/12/08 00:34:20;;;;;;;18.92;13.88;;;;;;;3.52;100.00;99577.34;5222988;28;20028;-82
2020/12/08 00:36:51;;;;;;;18.30;13.57;;;;;;;3.64;100.00;99570.97;5224843;28;20040;-81
2020/12/08 00:39:21;;;;;;;19.35;12.80;;;;;;;3.79;100.00;99562.84;5233397;28;20029;-81
2020/12/08 00:41:51;;;;;;;16.42;12.30;;;;;;;3.75;100.00;99570.75;5228568;28;20025;-81
2020/12/08 00:44:22;;;;;;;17.33;12.13;;;;;;;3.90;100.00;99571.19;5224246;28;20085;-79
2020/12/08 00:46:52;;;;;;;15.13;12.15;;;;;;;3.73;100.00;99557.84;5231855;28;20033;-80
2020/12/08 00:49:22;;;;;;;14.05;11.07;;;;;;;4.00;100.00;99559.75;5234267;28;20037;-82
2020/12/08 00:51:57;;;;;;;14.85;11.27;;;;;;;4.23;100.00;99553.97;5233292;28;20024;-82
2020/12/08 00:54:27;;;;;;;13.30;10.38;;;;;;;4.11;100.00;99557.72;5232119;28;20050;-82
2020/12/08 00:56:58;;;;;;;15.32;11.13;;;;;;;3.88;100.00;99551.44;5230610;28;20037;-82
2020/12/08 00:59:28;;;;;;;19.40;11.48;;;;;;;3.74;100.00;99551.78;5232314;28;20024;-81
2020/12/08 01:02:00;;;;;;;15.63;11.85;;;;;;;3.57;100.00;99557.41;5233887;28;20047;-80
2020/12/08 01:04:30;;;;;;;16.30;11.82;;;;;;;3.58;100.00;99555.63;5246585;22;20475;-79
2020/12/08 01:07:01;;;;;;;16.40;11.82;;;;;;;3.58;100.00;99564.28;5204907;28;20611;-79
2020/12/08 01:09:31;;;;;;;15.93;11.55;;;;;;;3.58;100.00;99556.53;5205663;28;20172;-79
2020/12/08 01:12:02;;;;;;;15.82;11.35;;;;;;;3.50;100.00;99558.44;5188150;28;20036;-79
2020/12/08 01:14:32;;;;;;;17.02;12.10;;;;;;;3.45;100.00;99557.69;5205970;28;20053;-78
2020/12/08 01:17:04;;;;;;;15.18;11.00;;;;;;;3.48;100.00;99555.88;5207951;28;20029;-79
2020/12/08 01:19:34;;;;;;;14.63;11.02;;;;;;;3.48;100.00;99561.06;5198120;28;20167;-80
2020/12/08 01:22:05;;;;;;;17.08;11.25;;;;;;;3.51;100.00;99557.56;5195301;28;20120;-79
2020/12/08 01:24:35;;;;;;;16.15;10.75;;;;;;;3.46;100.00;99554.22;5203371;28;20531;-79
2020/12/08 01:27:05;;;;;;;15.07;10.73;;;;;;;3.41;100.00;99566.41;5199993;28;20038;-79
2020/12/08 01:29:36;;;;;;;14.82;11.25;;;;;;;3.36;100.00;99563.09;5206304;28;20079;-79
2020/12/08 01:32:06;;;;;;;15.25;11.10;;;;;;;3.37;100.00;99569.94;5206951;28;20099;-79
2020/12/08 01:34:37;;;;;;;16.67;11.43;;;;;;;3.44;100.00;99566.31;5201859;28;21340;-78
2020/12/08 01:37:07;;;;;;;14.75;11.10;;;;;;;3.48;100.00;99567.94;5205268;28;20584;-78
2020/12/08 01:39:38;;;;;;;15.32;10.90;;;;;;;3.47;100.00;99568.81;5199733;28;20029;-78
2020/12/08 01:42:08;;;;;;;15.10;10.93;;;;;;;3.49;100.00;99569.63;5202866;28;20026;-78
2020/12/08 01:44:45;;;;;;;15.75;11.55;;;;;;;3.54;100.00;99568.66;5203598;28;20059;-78
2020/12/08 01:47:16;;;;;;;17.77;11.93;;;;;;;3.46;100.00;99572.28;5206202;28;20512;-78
2020/12/08 01:49:48;;;;;;;17.30;11.52;;;;;;;3.55;100.00;99566.94;5206332;28;20029;-78
2020/12/08 01:52:19;;;;;;;14.77;10.93;;;;;;;3.59;100.00;99570.25;5207877;28;20025;-78
2020/12/08 01:54:51;;;;;;;14.90;10.60;;;;;;;3.64;100.00;99570.97;5205556;28;20029;-78
2020/12/08 01:57:21;;;;;;;14.18;10.90;;;;;;;3.56;100.00;99574.63;5199407;28;20025;-78
2020/12/08 01:59:51;;;;;;;14.45;10.95;;;;;;;3.55;100.00;99574.69;5207202;28;20032;-78
2020/12/08 02:02:24;;;;;;;15.73;11.05;;;;;;;3.62;100.00;99571.91;5206534;28;20025;-78
2020/12/08 02:04:54;;;;;;;16.42;11.63;;;;;;;3.58;100.00;99570.28;5206559;28;20025;-78
2020/12/08 02:07:24;;;;;;;14.00;10.43;;;;;;;3.69;100.00;99571.72;5207005;28;20029;-78
2020/12/08 02:09:55;;;;;;;15.35;11.45;;;;;;;3.64;100.00;99572.72;5205491;28;20495;-78
2020/12/08 02:12:25;;;;;;;13.77;10.60;;;;;;;3.66;100.00;99574.41;5205295;28;20368;-78
2020/12/08 02:14:55;;;;;;;12.85;9.73;;;;;;;3.74;100.00;99579.34;5206808;28;20057;-78
2020/12/08 02:17:26;;;;;;;14.80;11.00;;;;;;;3.70;100.00;99576.00;5205806;28;20029;-78
2020/12/08 02:19:56;;;;;;;15.00;10.05;;;;;;;3.72;100.00;99573.38;5207342;28;20490;-78
2020/12/08 02:22:27;;;;;;;12.32;8.60;;;;;;;3.83;100.00;99576.56;5205760;28;20121;-78
2020/12/08 02:24:57;;;;;;;13.60;9.52;;;;;;;3.87;100.00;99573.00;5207171;28;20034;-78
2020/12/08 02:27:27;;;;;;;13.55;10.27;;;;;;;3.81;100.00;99574.00;5209184;28;20033;-78
2020/12/08 02:29:57;;;;;;;14.40;10.77;;;;;;;3.69;100.00;99571.72;5205438;28;20076;-78
2020/12/08 02:32:28;;;;;;;14.48;10.27;;;;;;;3.76;100.00;99575.03;5207512;28;20112;-78
2020/12/08 02:34:58;;;;;;;12.80;9.30;;;;;;;3.78;100.00;99574.06;5205782;28;20025;-78
2020/12/08 02:37:28;;;;;;;13.23;9.52;;;;;;;3.70;100.00;99578.59;5206302;28;20108;-78
2020/12/08 02:39:59;;;;;;;13.02;9.30;;;;;;;3.72;100.00;99582.00;5204533;28;20573;-78
2020/12/08 02:42:29;;;;;;;14.13;9.63;;;;;;;3.70;100.00;99576.00;5204796;28;20032;-78
2020/12/08 02:44:59;;;;;;;12.88;9.60;;;;;;;3.73;100.00;99575.94;5205425;28;20557;-78
2020/12/08 02:47:30;;;;;;;9.45;7.63;;;;;;;3.87;100.00;99567.84;5206414;28;20065;-78
2020/12/08 02:50:00;;;;;;;10.23;7.40;;;;;;;4.01;100.00;99571.78;5206463;28;20031;-78
2020/12/08 02:52:34;;;;;;;9.43;6.85;;;;;;;4.12;100.00;99574.94;5206452;28;20025;-78
2020/12/08 02:55:04;;;;;;;10.27;7.13;;;;;;;4.04;100.00;99566.53;5205506;28;20024;-78
2020/12/08 02:57:35;;;;;;;12.43;7.90;;;;;;;4.05;100.00;99577.72;5196983;28;20496;-78
2020/12/08 03:00:05;;;;;;;11.73;8.32;;;;;;;3.91;100.00;99584.94;5206071;28;20017;-78
2020/12/08 03:02:35;;;;;;;10.80;8.15;;;;;;;3.85;100.00;99585.13;5204596;28;20028;-78
2020/12/08 03:05:06;;;;;;;11.68;8.55;;;;;;;3.85;100.00;99585.13;5205212;28;20029;-78
2020/12/08 03:07:38;;;;;;;11.95;9.00;;;;;;;3.89;100.00;99584.16;5204663;28;20030;-78
2020/12/08 03:10:08;;;;;;;12.32;8.63;;;;;;;3.86;100.00;99577.34;5205891;28;20026;-78
2020/12/08 03:12:39;;;;;;;13.23;9.40;;;;;;;3.85;100.00;99575.63;5205746;28;20032;-78
2020/12/08 03:15:09;;;;;;;12.88;9.02;;;;;;;3.81;100.00;99568.81;5205661;28;20036;-78
2020/12/08 03:17:39;;;;;;;13.80;9.77;;;;;;;3.93;100.00;99565.13;5205893;28;20036;-78
2020/12/08 03:20:10;;;;;;;14.15;10.13;;;;;;;3.94;100.00;99569.41;5203436;28;20112;-78
2020/12/08 03:22:40;;;;;;;13.98;9.70;;;;;;;3.79;100.00;99586.09;5205011;28;20036;-78
2020/12/08 03:25:11;;;;;;;11.93;9.52;;;;;;;4.04;100.00;99576.88;5205072;28;20025;-79
2020/12/08 03:27:42;;;;;;;17.63;11.55;;;;;;;4.20;100.00;99587.66;5198335;28;20029;-78
2020/12/08 03:30:13;;;;;;;15.18;11.27;;;;;;;4.13;100.00;99589.53;5205402;28;20471;-78
2020/12/08 03:32:43;;;;;;;17.02;12.48;;;;;;;4.21;100.00;99594.53;5205341;28;20041;-78
2020/12/08 03:35:13;;;;;;;15.70;12.13;;;;;;;4.15;100.00;99602.44;5205233;28;20105;-78
2020/12/08 03:37:44;;;;;;;19.20;14.15;;;;;;;4.08;100.00;99594.00;5204824;28;20498;-78
2020/12/08 03:40:14;;;;;;;18.45;13.98;;;;;;;3.86;100.00;99598.00;5203928;28;20109;-78
2020/12/08 03:42:44;;;;;;;20.33;14.52;;;;;;;3.76;100.00;99593.09;5204149;28;20053;-79
2020/12/08 03:45:15;;;;;;;25.52;16.20;;;;;;;3.58;100.00;99587.50;5203852;28;20495;-78
2020/12/08 03:47:45;;;;;;;23.13;16.33;;;;;;;3.35;100.00;99582.03;5205387;28;20105;-78
2020/12/08 03:50:15;;;;;;;22.90;16.92;;;;;;;3.33;100.00;99587.22;5204998;28;20115;-78
2020/12/08 03:52:45;;;;;;;24.20;17.42;;;;;;;3.34;100.00;99590.66;5206662;28;20022;-79
2020/12/08 03:55:16;;;;;;;23.98;17.65;;;;;;;3.28;100.00;99586.50;5205362;28;20068;-79
2020/12/08 03:57:46;;;;;;;24.30;17.20;;;;;;;3.62;100.00;99588.25;5198271;28;20047;-79
2020/12/08 04:00:16;;;;;;;26.58;17.38;;;;;;;3.75;100.00;99579.31;5205483;28;20103;-79
2020/12/08 04:02:47;;;;;;;24.40;17.45;;;;;;;3.69;100.00;99579.47;5203882;28;20025;-79
2020/12/08 04:05:17;;;;;;;24.90;17.58;;;;;;;3.64;100.00;99583.88;5204857;28;20033;-79
2020/12/08 04:07:47;;;;;;;26.30;18.55;;;;;;;3.70;100.00;99588.94;5204098;28;20021;-79
2020/12/08 04:10:18;;;;;;;24.92;18.55;;;;;;;3.80;100.00;99586.97;5200753;28;20021;-79
2020/12/08 04:12:48;;;;;;;25.63;17.83;;;;;;;3.80;100.00;99587.81;5203356;28;20687;-79
2020/12/08 04:15:19;;;;;;;27.25;19.13;;;;;;;3.79;100.00;99588.69;5204116;28;20025;-79
2020/12/08 04:17:49;;;;;;;26.40;18.98;;;;;;;3.86;100.00;99584.22;5204344;28;20037;-78
2020/12/08 04:20:19;;;;;;;30.63;20.58;;;;;;;3.73;100.00;99581.09;5203834;28;20043;-78
2020/12/08 04:22:50;;;;;;;30.00;19.30;;;;;;;3.76;100.00;99586.19;5204196;28;20050;-78
2020/12/08 04:25:20;;;;;;;30.42;20.15;;;;;;;3.78;100.00;99588.75;5203211;28;20021;-78
2020/12/08 04:27:50;;;;;;;30.10;19.83;;;;;;;3.64;100.00;99593.38;5194873;28;20043;-78
2020/12/08 04:30:20;;;;;;;29.83;19.88;;;;;;;3.60;100.00;99595.19;5202580;28;20025;-78
2020/12/08 04:32:51;;;;;;;27.70;20.00;;;;;;;3.54;100.00;99601.38;5203352;28;20543;-78
2020/12/08 04:35:21;;;;;;;31.88;20.50;;;;;;;3.68;100.00;99602.75;5204236;28;20018;-79
2020/12/08 04:37:51;;;;;;;29.92;19.80;;;;;;;3.65;100.00;99603.66;5203564;28;20033;-78
2020/12/08 04:40:22;;;;;;;27.65;18.67;;;;;;;3.67;100.00;99604.50;5199953;28;20498;-79
2020/12/08 04:42:54;;;;;;;28.45;19.52;;;;;;;3.52;100.00;99600.56;5203774;28;20029;-78
2020/12/08 04:45:24;;;;;;;30.20;20.95;;;;;;;3.44;100.00;99603.34;5203606;28;20121;-78
2020/12/08 04:47:58;;;;;;;28.90;20.77;;;;;;;3.44;100.00;99595.59;5203504;28;20128;-79
2020/12/08 04:50:29;;;;;;;26.73;19.67;;;;;;;3.55;100.00;99600.50;5203569;28;20028;-78
2020/12/08 04:52:59;;;;;;;27.98;20.08;;;;;;;3.63;100.00;99592.53;5203430;28;20116;-79
2020/12/08 04:55:29;;;;;;;25.90;18.88;;;;;;;3.58;100.00;99591.78;5201933;28;20541;-78
2020/12/08 04:58:01;;;;;;;27.75;20.67;;;;;;;3.67;100.00;99591.59;5195719;28;20499;-79
2020/12/08 05:00:39;;;;;;;27.83;19.75;;;;;;;3.85;100.00;99596.31;5203185;28;20111;-78
2020/12/08 05:03:09;;;;;;;29.55;19.75;;;;;;;3.78;100.00;99589.56;5201675;28;20108;-78
2020/12/08 05:05:41;;;;;;;25.52;18.95;;;;;;;3.83;100.00;99605.84;5202244;28;20450;-78
2020/12/08 05:08:12;;;;;;;27.83;19.85;;;;;;;3.65;100.00;99602.84;5202955;28;20045;-78
2020/12/08 05:10:43;;;;;;;28.27;19.98;;;;;;;3.62;100.00;99603.75;5198809;28;20029;-79
2020/12/08 05:13:27;;;;;;;26.20;19.35;;;;;;;3.58;100.00;99591.78;5202179;28;20022;-78
2020/12/08 05:16:05;;;;;;;26.65;19.00;;;;;;;3.66;100.00;99605.38;5202040;28;20334;-78
2020/12/08 05:18:36;;;;;;;28.02;19.63;;;;;;;3.65;100.00;99603.66;5185637;28;20026;-79
2020/12/08 05:21:12;;;;;;;26.98;19.90;;;;;;;3.66;100.00;99595.06;5202614;28;20039;-78
2020/12/08 05:23:43;;;;;;;26.92;19.30;;;;;;;3.70;100.00;99599.25;5202966;28;20032;-78
2020/12/08 05:26:15;;;;;;;28.48;19.85;;;;;;;3.83;100.00;99599.81;5204907;28;20018;-79
2020/12/08 05:28:45;;;;;;;26.80;19.20;;;;;;;3.89;100.00;99599.66;5204509;28;20040;-78
2020/12/08 05:31:26;;;;;;;26.08;18.17;;;;;;;3.76;100.00;99595.69;5203326;28;20025;-79
2020/12/08 05:33:59;;;;;;;27.23;19.65;;;;;;;3.72;100.00;99594.91;5202642;28;20036;-78
2020/12/08 05:36:32;;;;;;;27.75;19.80;;;;;;;3.70;100.00;99598.41;5203136;28;20017;-79
2020/12/08 05:39:03;;;;;;;25.25;18.08;;;;;;;3.94;100.00;99601.25;5202984;28;20398;-79
2020/12/08 05:41:42;;;;;;;23.75;17.83;;;;;;;3.92;100.00;99597.00;5199676;28;20030;-78
2020/12/08 05:44:23;;;;;;;24.83;18.42;;;;;;;3.85;100.00;99609.22;5203576;28;20022;-79
2020/12/08 05:46:53;;;;;;;26.08;18.98;;;;;;;3.85;100.00;99605.78;5204725;28;20037;-79
2020/12/08 05:49:23;;;;;;;24.98;17.60;;;;;;;3.80;100.00;99603.31;5204164;28;20368;-80
2020/12/08 05:51:54;;;;;;;26.17;18.23;;;;;;;3.69;100.00;99594.97;5204795;28;20025;-80
2020/12/08 05:54:24;;;;;;;24.02;17.45;;;;;;;3.74;100.00;99597.44;5203016;28;20389;-79
2020/12/08 05:56:54;;;;;;;25.25;17.15;;;;;;;3.72;100.00;99584.56;5197589;28;20495;-79
2020/12/08 05:59:26;;;;;;;24.02;17.20;;;;;;;3.81;100.00;99592.06;5203013;28;20120;-79
2020/12/08 06:01:56;;;;;;;26.05;17.75;;;;;;;3.88;100.00;99585.03;5203370;28;20538;-80
2020/12/08 06:04:27;;;;;;;21.52;15.55;;;;;;;3.97;100.00;99598.56;5203572;28;20033;-80
2020/12/08 06:06:57;;;;;;;21.90;16.05;;;;;;;3.95;100.00;99594.34;5203985;28;20025;-80
2020/12/08 06:09:33;;;;;;;23.50;16.00;;;;;;;4.00;100.00;99595.94;5204297;28;20037;-79
2020/12/08 06:12:15;;;;;;;21.40;15.35;;;;;;;4.22;100.00;99606.56;5198838;28;20088;-79
2020/12/08 06:14:45;;;;;;;22.35;15.70;;;;;;;4.07;100.00;99592.31;5200595;28;20021;-79
2020/12/08 06:17:15;;;;;;;22.08;16.58;;;;;;;4.09;100.00;99593.09;5191275;28;20091;-79
2020/12/08 06:19:45;;;;;;;26.17;18.50;;;;;;;3.90;100.00;99599.63;5181908;28;20029;-79
2020/12/08 06:22:17;;;;;;;25.80;18.10;;;;;;;3.90;100.00;99602.22;5191260;28;20036;-79
2020/12/08 06:24:52;;;;;;;25.77;19.33;;;;;;;3.86;100.00;99597.13;5194372;28;20026;-79
2020/12/08 06:27:23;;;;;;;25.40;17.83;;;;;;;3.86;100.00;99598.00;5198466;28;20030;-79
2020/12/08 06:29:55;;;;;;;26.33;19.13;;;;;;;3.86;100.00;99607.47;5202754;28;20032;-79
2020/12/08 06:32:30;;;;;;;28.60;17.85;;;;;;;4.02;100.00;99609.66;5204374;28;20025;-79
2020/12/08 06:35:09;;;;;;;28.53;18.37;;;;;;;3.83;100.00;99600.66;5205268;28;20095;-79
2020/12/08 06:37:50;;;;;;;26.23;18.67;;;;;;;3.84;100.00;99604.09;5207074;28;20566;-79
2020/12/08 06:40:23;;;;;;;26.48;18.98;;;;;;;3.79;100.00;99609.34;5201689;28;20034;-79
2020/12/08 06:42:54;;;;;;;27.13;19.48;;;;;;;3.74;100.00;99608.63;5204159;28;20028;-79
2020/12/08 06:45:24;;;;;;;28.55;19.85;;;;;;;3.81;100.00;99606.75;5205110;28;20021;-79
2020/12/08 06:47:55;;;;;;;29.75;19.38;;;;;;;3.80;100.00;99603.31;5205348;28;20493;-79
2020/12/08 06:50:29;;;;;;;26.33;19.63;;;;;;;3.92;100.00;99610.78;5204332;28;20602;-79
2020/12/08 06:53:02;;;;;;;25.40;18.30;;;;;;;3.91;100.00;99603.03;5206886;28;20610;-79
2020/12/08 06:55:43;;;;;;;28.85;19.73;;;;;;;3.89;100.00;99607.41;5205168;28;20025;-79
2020/12/08 06:58:15;;;;;;;28.45;19.50;;;;;;;3.82;100.00;99604.13;5201123;28;20029;-80
2020/12/08 07:00:46;;;;;;;28.02;19.95;;;;;;;3.78;100.00;99606.81;5206972;28;20091;-79
2020/12/08 07:03:16;;;;;;;28.20;19.85;;;;;;;3.68;100.00;99608.78;5206656;28;20033;-79
2020/12/08 07:05:47;;;;;;;28.42;19.73;;;;;;;3.77;100.00;99613.72;5234422;23;20481;-78
2020/12/08 07:08:17;;;;;;;27.45;19.33;;;;;;;3.72;100.00;99604.38;5230275;28;20271;-79
2020/12/08 07:10:47;;;;;;;26.73;19.45;;;;;;;3.63;100.00;99615.75;5227800;28;20024;-79
2020/12/08 07:13:18;;;;;;;28.17;20.10;;;;;;;3.57;100.00;99619.38;5231677;28;20075;-79
2020/12/08 07:15:48;;;;;;;28.85;20.33;;;;;;;3.63;100.00;99610.59;5230634;28;20074;-79
2020/12/08 07:18:19;;;;;;;27.92;20.17;;;;;;;3.58;100.00;99615.91;5231392;28;20093;-79
2020/12/08 07:20:49;;;;;;;26.83;19.58;;;;;;;3.69;100.00;99620.81;5232131;28;20104;-78
2020/12/08 07:23:19;;;;;;;30.13;21.25;;;;;;;3.41;100.00;99618.03;5230692;28;20028;-77
2020/12/08 07:25:50;;;;;;;29.02;20.30;;;;;;;3.41;100.00;99618.91;5227862;28;20075;-79
2020/12/08 07:28:20;;;;;;;28.65;20.58;;;;;;;3.39;100.00;99624.97;5212013;28;20044;-79
2020/12/08 07:30:50;;;;;;;28.42;20.65;;;;;;;3.49;100.00;99621.28;5210798;28;20503;-79
2020/12/08 07:33:20;;;;;;;28.33;20.30;;;;;;;3.50;100.00;99621.25;5209619;28;20098;-79
2020/12/08 07:35:51;;;;;;;31.98;21.95;;;;;;;3.38;100.00;99618.09;5214830;28;20025;-78
2020/12/08 07:38:21;;;;;;;27.23;20.02;;;;;;;3.32;100.00;99607.91;5215927;28;20032;-77
2020/12/08 07:40:51;;;;;;;34.50;21.60;;;;;;;3.44;100.00;99612.78;5213404;28;20117;-78
2020/12/08 07:43:28;;;;;;;26.13;19.25;;;;;;;3.79;100.00;99611.09;5205793;28;20037;-77
2020/12/08 07:46:03;;;;;;;28.60;19.00;;;;;;;3.82;100.00;99619.63;5205350;28;20499;-78
2020/12/08 07:48:33;;;;;;;29.90;20.55;;;;;;;3.82;100.00;99618.78;5204652;28;20041;-78
2020/12/08 07:51:03;;;;;;;24.73;18.63;;;;;;;4.17;100.00;99624.78;5203693;28;20036;-78
2020/12/08 07:53:36;;;;;;;25.95;18.88;;;;;;;4.47;100.00;99620.56;5209807;28;20026;-77
2020/12/08 07:56:06;;;;;;;27.08;19.40;;;;;;;4.72;98.37;99627.63;5214375;28;20021;-77
2020/12/08 07:58:36;;;;;;;25.13;18.25;;;;;;;4.77;98.33;99628.34;5227454;28;20057;-77
2020/12/08 08:01:06;;;;;;;22.52;16.58;;;;;;;5.36;96.07;99632.66;5227357;28;20021;-77
2020/12/08 08:03:37;;;;;;;19.63;15.20;;;;;;;5.77;92.07;99625.31;5223206;28;20087;-77
2020/12/08 08:06:15;;;;;;;21.65;15.77;;;;;;;5.99;91.60;99630.69;5223722;28;20036;-76
2020/12/08 08:08:47;;;;;;;20.75;16.05;;;;;;;6.16;89.15;99628.41;5221521;28;20059;-77
2020/12/08 08:11:18;;;;;;;21.10;15.82;;;;;;;5.96;89.53;99636.84;5205315;28;20586;-77
2020/12/08 08:13:49;;;;;;;21.58;14.88;;;;;;;6.43;88.88;99632.69;5203502;28;20112;-77
2020/12/08 08:16:19;;;;;;;19.25;14.50;;;;;;;6.62;86.18;99631.13;5202643;28;20030;-77
2020/12/08 08:18:50;;;;;;;21.38;15.13;;;;;;;6.56;86.29;99624.41;5203373;28;20032;-77
2020/12/08 08:21:20;;;;;;;18.50;14.15;;;;;;;6.84;84.66;99616.50;5206902;28;20105;-77
2020/12/08 08:23:51;;;;;;;21.55;14.95;;;;;;;6.64;86.80;99625.00;5202793;28;20128;-78
2020/12/08 08:26:21;;;;;;;20.25;14.25;;;;;;;7.02;82.85;99634.00;5211450;28;20506;-78
2020/12/08 08:28:53;;;;;;;22.30;15.00;;;;;;;6.79;83.95;99634.81;5206146;28;20041;-77
2020/12/08 08:31:23;;;;;;;19.05;13.98;;;;;;;5.98;87.67;99634.19;5204169;28;20029;-77
2020/12/08 08:33:54;;;;;;;19.70;14.65;;;;;;;5.84;88.22;99638.94;5203866;28;20025;-78
2020/12/08 08:36:25;;;;;;;26.17;16.60;;;;;;;5.38;90.80;99649.00;5203844;28;20060;-77
2020/12/08 08:38:55;;;;;;;20.48;15.55;;;;;;;4.93;93.45;99658.09;5204379;28;20049;-77
2020/12/08 08:41:26;;;;;;;20.15;15.57;;;;;;;5.09;93.43;99655.91;5211026;28;20522;-77
2020/12/08 08:43:56;;;;;;;24.40;17.20;;;;;;;5.22;93.10;99650.34;5205128;28;20111;-77
2020/12/08 08:46:27;;;;;;;24.95;18.25;;;;;;;4.98;94.91;99653.63;5204001;28;20053;-77
2020/12/08 08:48:57;;;;;;;23.65;17.00;;;;;;;4.96;95.03;99662.34;5203171;28;20084;-77
2020/12/08 08:51:28;;;;;;;24.48;17.80;;;;;;;4.93;96.12;99660.69;5203519;28;20025;-77
2020/12/08 08:53:58;;;;;;;24.50;18.05;;;;;;;4.89;95.83;99672.00;5202624;28;20030;-77
2020/12/08 08:56:29;;;;;;;27.40;19.65;;;;;;;4.55;99.17;99663.44;5202727;28;20025;-76
2020/12/08 08:58:59;;;;;;;27.85;18.90;;;;;;;4.39;100.00;99671.63;5203902;28;20493;-77
2020/12/08 09:01:30;;;;;;;21.27;15.23;;;;;;;4.69;99.61;99666.53;5202309;28;20040;-77
2020/12/08 09:04:02;;;;;;;20.20;14.82;;;;;;;4.92;97.40;99666.75;5201814;28;20098;-77
2020/12/08 09:06:32;;;;;;;23.50;17.85;;;;;;;5.32;97.30;99658.72;5203052;28;20026;-77
2020/12/08 09:09:02;;;;;;;24.58;18.60;;;;;;;5.31;96.37;99657.84;5214604;28;20036;-77
2020/12/08 09:11:33;;;;;;;25.52;18.08;;;;;;;5.17;95.83;99654.78;5210749;28;20048;-77
2020/12/08 09:14:05;;;;;;;24.10;18.20;;;;;;;5.17;97.84;99659.97;5202493;28;20064;-77
2020/12/08 09:16:36;;;;;;;23.00;17.15;;;;;;;5.36;94.89;99655.97;5202310;28;20022;-77
2020/12/08 09:19:06;;;;;;;28.80;18.58;;;;;;;5.06;96.64;99662.03;5201977;28;20498;-77
2020/12/08 09:21:37;;;;;;;27.70;19.05;;;;;;;5.16;96.64;99663.47;5203580;28;20085;-77
2020/12/08 09:24:07;;;;;;;27.58;19.58;;;;;;;4.82;98.58;99667.03;5202746;28;20406;-77
2020/12/08 09:26:40;;;;;;;28.00;20.52;;;;;;;4.68;99.33;99675.19;5220663;28;20032;-77
2020/12/08 09:29:11;;;;;;;30.10;19.38;;;;;;;4.81;98.44;99666.19;5204693;28;20049;-77
2020/12/08 09:31:42;;;;;;;29.42;20.75;;;;;;;4.75;99.41;99671.53;5214350;28;20110;-77
2020/12/08 09:34:13;;;;;;;26.83;19.33;;;;;;;4.84;98.90;99670.44;5211374;28;20036;-76
2020/12/08 09:36:43;;;;;;;27.00;19.50;;;;;;;4.96;98.97;99665.75;5200412;28;20025;-77
2020/12/08 09:39:14;;;;;;;29.08;20.30;;;;;;;4.91;98.37;99665.03;5206204;28;20037;-77
2020/12/08 09:41:45;;;;;;;28.05;20.00;;;;;;;4.94;98.90;99662.38;5210115;28;20521;-78
2020/12/08 09:44:16;;;;;;;29.90;20.92;;;;;;;5.05;98.81;99665.53;5201499;28;20033;-78
2020/12/08 09:46:46;;;;;;;27.75;20.40;;;;;;;4.96;98.72;99665.75;5201707;28;20036;-78
2020/12/08 09:49:17;;;;;;;27.95;19.65;;;;;;;5.57;96.48;99663.13;5205512;28;20091;-77
2020/12/08 09:51:47;;;;;;;27.83;19.80;;;;;;;5.26;96.81;99664.03;5208183;28;20498;-77
2020/12/08 09:54:18;;;;;;;26.17;19.42;;;;;;;5.37;98.10;99668.03;5201723;28;20025;-77
2020/12/08 09:56:48;;;;;;;28.42;20.48;;;;;;;5.23;100.00;99674.50;5211674;28;20017;-77
2020/12/08 09:59:19;;;;;;;26.95;18.98;;;;;;;5.46;98.71;99667.75;5224390;28;20028;-77
2020/12/08 10:01:49;;;;;;;27.75;19.55;;;;;;;5.30;99.12;99669.09;5227989;28;20513;-77
2020/12/08 10:04:19;;;;;;;27.02;19.02;;;;;;;5.59;96.37;99669.09;5225247;28;20032;-77
2020/12/08 10:06:50;;;;;;;27.98;19.85;;;;;;;5.80;95.86;99668.47;5226409;28;20033;-77
2020/12/08 10:09:20;;;;;;;28.70;20.23;;;;;;;5.71;94.52;99660.97;5219046;28;20021;-77
2020/12/08 10:11:51;;;;;;;25.23;18.75;;;;;;;5.80;95.13;99673.66;5212969;28;20032;-76
2020/12/08 10:14:21;;;;;;;29.13;19.67;;;;;;;5.93;94.74;99665.44;5205700;28;20120;-77
2020/12/08 10:16:52;;;;;;;24.58;18.33;;;;;;;5.71;93.81;99666.16;5206992;28;20086;-77
2020/12/08 10:19:22;;;;;;;26.25;19.25;;;;;;;5.82;93.49;99659.75;5206258;28;20025;-77
2020/12/08 10:21:59;;;;;;;26.52;18.95;;;;;;;6.02;92.92;99664.28;5207505;28;20656;-77
2020/12/08 10:24:30;;;;;;;26.85;19.38;;;;;;;5.95;92.47;99665.41;5221868;28;20032;-78
2020/12/08 10:27:00;;;;;;;25.92;19.05;;;;;;;5.97;94.02;99666.19;5219603;28;20029;-77
2020/12/08 10:29:32;;;;;;;30.83;19.83;;;;;;;5.94;92.84;99666.31;5223393;28;20124;-77
2020/12/08 10:32:02;;;;;;;28.42;19.25;;;;;;;5.92;92.73;99663.75;5225970;28;20081;-77
2020/12/08 10:34:33;;;;;;;26.23;19.70;;;;;;;5.84;93.18;99659.69;5227274;28;20159;-77
2020/12/08 10:37:03;;;;;;;27.58;19.67;;;;;;;5.76;93.63;99662.50;5227255;28;20108;-77
2020/12/08 10:39:34;;;;;;;26.80;19.20;;;;;;;5.97;93.45;99661.00;5225938;28;20116;-77
2020/12/08 10:42:05;;;;;;;25.83;19.38;;;;;;;6.07;91.71;99662.44;5207787;28;20021;-77
2020/12/08 10:44:36;;;;;;;29.20;19.50;;;;;;;6.05;92.94;99662.47;5206672;28;20052;-77
2020/12/08 10:47:06;;;;;;;26.70;19.67;;;;;;;5.74;94.43;99659.09;5205547;28;20029;-77
2020/12/08 10:49:36;;;;;;;28.00;19.60;;;;;;;5.98;92.50;99652.34;5206173;28;20025;-77
2020/12/08 10:52:07;;;;;;;28.23;19.77;;;;;;;5.93;92.52;99642.09;5206796;28;20028;-78
2020/12/08 10:54:37;;;;;;;28.85;20.40;;;;;;;6.04;93.09;99652.13;5206641;28;20040;-77
2020/12/08 10:57:08;;;;;;;26.80;19.95;;;;;;;6.05;92.90;99646.91;5213014;28;20021;-77
2020/12/08 10:59:38;;;;;;;28.23;19.35;;;;;;;6.10;93.30;99644.16;5225915;28;20108;-78
2020/12/08 11:02:09;;;;;;;29.50;20.10;;;;;;;6.10;93.21;99647.59;5227396;28;20358;-77
2020/12/08 11:04:39;;;;;;;27.13;19.98;;;;;;;6.13;93.40;99642.34;5227678;28;20028;-77
2020/12/08 11:07:10;;;;;;;25.95;20.05;;;;;;;6.08;93.02;99645.97;5227458;28;20033;-78
2020/12/08 11:09:40;;;;;;;26.58;19.80;;;;;;;6.26;92.78;99645.38;5218660;28;20032;-77
2020/12/08 11:12:14;;;;;;;28.92;19.88;;;;;;;6.16;93.79;99641.38;5209904;28;20095;-77
2020/12/08 11:14:44;;;;;;;26.13;19.75;;;;;;;6.17;94.12;99641.31;5207505;28;20033;-77
2020/12/08 11:17:15;;;;;;;26.10;19.15;;;;;;;6.37;93.80;99640.66;5206460;28;20049;-79
2020/12/08 11:19:45;;;;;;;27.17;19.73;;;;;;;6.32;92.42;99638.22;5208051;28;20025;-77
2020/12/08 11:22:16;;;;;;;28.63;20.48;;;;;;;6.37;92.47;99625.94;5207764;28;20096;-77
2020/12/08 11:24:46;;;;;;;27.75;20.52;;;;;;;6.17;93.93;99632.69;5206947;28;20028;-78
2020/12/08 11:27:19;;;;;;;30.02;19.98;;;;;;;5.99;94.82;99634.16;5221120;28;20024;-77
2020/12/08 11:29:50;;;;;;;29.42;20.25;;;;;;;6.15;95.11;99637.06;5225573;28;20029;-77
2020/12/08 11:32:21;;;;;;;27.00;19.33;;;;;;;6.14;93.72;99644.03;5228959;28;20021;-78
2020/12/08 11:34:51;;;;;;;25.58;19.23;;;;;;;6.11;95.01;99638.09;5228281;28;20029;-77
2020/12/08 11:37:22;;;;;;;26.27;18.85;;;;;;;6.17;94.13;99635.28;5228231;28;20021;-77